»·PEaware :: ASA102 KSAN-KPHX

ASA102 :: KSAN-KPHX

FLIGHT INFORMATION

Flight Status: Arrived
Operator:
Alaska Airlines
More flights by this operator :: More flights under this callsign
Pilot: Cole F. (14495)
Aircraft: BOEING 737-800
(B738)
More flights by this aircraft type
Origin: KSAN San Diego Intl-Lindbergh
United States
Destination: KPHX Phoenix Sky Harbor Intl
United States
More flights between these airports :: More routes between these airports
Route: +ZZOOO1 IPL J18 BZA HOGGZ HYDRR1
File this flight plan on PilotEdge
Remarks:
Altitude:
(Current/Filed)
31,000ft
Speed:
(Current/Filed)
421kts
Departed: 04-Dec-17 02:45 PM
Arrived: 04-Dec-17 03:38 PM
Distance/Time
Traveled:
264nm/0:53
Distance/Time
To Go:
Arrived

Flight Plot

Page will automatically refresh every two minutes.


Map Options




Map Legend


Flown Route
Filed Route
Departure Airport
Arrival Airport
Navaid (VOR, NDB)
Fix

Horizontal Profiles

Position Reports

Time Latitude Longitude Heading Altitude Ground
Speed
04-Dec-17 14:25 32.733338 -117.197748 285 19ft 0kts
04-Dec-17 14:26 32.733338 -117.197748 285 19ft 0kts
04-Dec-17 14:27 32.733338 -117.197748 285 19ft 0kts
04-Dec-17 14:28 32.733338 -117.197748 285 19ft 0kts
04-Dec-17 14:29 32.733338 -117.197748 285 19ft 0kts
04-Dec-17 14:30 32.733338 -117.197748 285 19ft 0kts
04-Dec-17 14:31 32.733338 -117.197748 285 19ft 0kts
04-Dec-17 14:32 32.733338 -117.197748 285 19ft 0kts
04-Dec-17 14:33 32.733295 -117.197564 284 19ft 2kts
04-Dec-17 14:34 32.732898 -117.197315 16 19ft 1kts
04-Dec-17 14:35 32.732876 -117.197322 14 19ft 0kts
04-Dec-17 14:36 32.732876 -117.197322 14 19ft 0kts
04-Dec-17 14:37 32.732876 -117.197322 14 19ft 0kts
04-Dec-17 14:38 32.733639 -117.197049 19 19ft 0kts
04-Dec-17 14:39 32.733646 -117.197047 19 19ft 0kts
04-Dec-17 14:40 32.733584 -117.194041 106 20ft 14kts
04-Dec-17 14:41 32.732636 -117.190129 106 21ft 16kts
04-Dec-17 14:42 32.731162 -117.184013 107 20ft 17kts
04-Dec-17 14:43 32.729732 -117.178137 106 20ft 12kts
04-Dec-17 14:44 32.729499 -117.176766 72 22ft 0kts
04-Dec-17 14:45 32.730299 -117.176246 285 26ft 0kts
04-Dec-17 14:46 32.730299 -117.176246 285 26ft 0kts
04-Dec-17 14:47 32.730299 -117.176246 285 26ft 0kts
04-Dec-17 14:48 32.730299 -117.176246 285 26ft 0kts
04-Dec-17 14:49 32.730299 -117.176246 285 26ft 0kts
04-Dec-17 14:50 32.732299 -117.184493 285 21ft 125kts
04-Dec-17 14:51 32.747177 -117.240348 282 1847ft 216kts
04-Dec-17 14:52 32.744393 -117.315139 214 4429ft 261kts
04-Dec-17 14:53 32.679454 -117.289007 144 7703ft 276kts
04-Dec-17 14:54 32.631191 -117.215673 105 10307ft 319kts
04-Dec-17 14:55 32.618604 -117.103137 95 12541ft 359kts
04-Dec-17 14:56 32.607698 -116.981872 94 15035ft 383kts
04-Dec-17 14:57 32.613896 -116.853975 71 17749ft 401kts
04-Dec-17 14:58 32.635614 -116.721030 80 20428ft 425kts
04-Dec-17 14:59 32.648556 -116.579047 79 22944ft 443kts
04-Dec-17 15:00 32.662573 -116.430876 79 25175ft 461kts
04-Dec-17 15:01 32.677301 -116.277377 79 27315ft 474kts
04-Dec-17 15:02 32.692369 -116.122025 79 29465ft 476kts
04-Dec-17 15:03 32.707251 -115.966117 80 31037ft 483kts
04-Dec-17 15:04 32.722008 -115.801635 80 31060ft 519kts
04-Dec-17 15:05 32.738000 -115.626103 80 31050ft 544kts
04-Dec-17 15:06 32.750636 -115.447558 86 31032ft 546kts
04-Dec-17 15:07 32.754216 -115.268134 86 31032ft 545kts
04-Dec-17 15:08 32.758390 -115.088129 86 31036ft 544kts
04-Dec-17 15:09 32.762209 -114.909131 86 31013ft 543kts
04-Dec-17 15:10 32.765563 -114.729715 85 31016ft 543kts
04-Dec-17 15:11 32.768810 -114.551738 86 31018ft 543kts
04-Dec-17 15:12 32.770700 -114.380828 85 29749ft 501kts
04-Dec-17 15:13 32.772769 -114.220226 85 27303ft 480kts
04-Dec-17 15:14 32.775080 -114.065993 80 25039ft 453kts
04-Dec-17 15:15 32.791210 -113.919241 77 25013ft 453kts
04-Dec-17 15:16 32.807376 -113.771143 76 25012ft 451kts
04-Dec-17 15:17 32.851942 -113.642164 40 24461ft 414kts
04-Dec-17 15:18 32.926207 -113.540453 38 23305ft 399kts
04-Dec-17 15:19 33.000016 -113.440956 38 22614ft 398kts
04-Dec-17 15:20 33.072383 -113.343447 39 21612ft 395kts
04-Dec-17 15:21 33.143210 -113.247341 39 20467ft 384kts
04-Dec-17 15:22 33.212924 -113.152801 39 19275ft 374kts
04-Dec-17 15:23 33.271982 -113.053070 69 18094ft 387kts
04-Dec-17 15:24 33.277911 -112.923895 83 16851ft 381kts
04-Dec-17 15:25 33.281809 -112.803125 78 15727ft 352kts
04-Dec-17 15:26 33.292826 -112.688033 78 14627ft 345kts
04-Dec-17 15:27 33.303246 -112.575189 78 13556ft 337kts
04-Dec-17 15:28 33.313498 -112.465198 78 12513ft 329kts
04-Dec-17 15:29 33.323745 -112.356462 82 11481ft 328kts
04-Dec-17 15:30 33.332931 -112.254823 83 10505ft 312kts
04-Dec-17 15:31 33.341886 -112.155773 82 9540ft 286kts
04-Dec-17 15:32 33.347706 -112.065072 92 8605ft 261kts
04-Dec-17 15:33 33.346348 -111.980642 90 7357ft 253kts
04-Dec-17 15:34 33.345404 -111.898589 90 6075ft 238kts
04-Dec-17 15:35 33.345024 -111.820311 77 4990ft 232kts
04-Dec-17 15:36 33.396086 -111.796363 359 4013ft 198kts
04-Dec-17 15:37 33.449755 -111.793946 358 3979ft 194kts
04-Dec-17 15:38 33.455941 -111.836723 225 3070ft 168kts
04-Dec-17 15:39 33.428890 -111.871984 264 2949ft 138kts
04-Dec-17 15:40 33.428754 -111.918305 269 2529ft 138kts
04-Dec-17 15:41 33.428766 -111.956438 268 1875ft 137kts
04-Dec-17 15:42 33.428819 -112.009322 269 1117ft 110kts
04-Dec-17 15:43 33.430083 -112.016213 42 1116ft 10kts
04-Dec-17 15:44 33.432523 -112.015073 31 1116ft 11kts
04-Dec-17 15:45 33.433792 -112.012337 349 1116ft 11kts

Navigation Log

Ident Type
1. KSAN Airport
2. JETTI Fix
3. ZZOOO Fix
4. JORRJ Fix
5. GRIDR Fix
6. BLUZE Fix
7. IPL Navaid
8. IPL Navaid
9. HEEDS Fix
10. BZA Navaid
11. HOGGZ Fix
12. JUDTH Fix
13. RKDAM Fix
14. HYDRR Fix
15. GEELA Fix
16. PUNNT Fix
17. TEICH Fix
18. TESLE Fix
19. FALGO Fix
20. CAGOR Fix
21. FOWLE Fix
22. KPHX Airport